sensor_id;sensor_type;location;lat;lon;timestamp;P1;durP1;ratioP1;P2;durP2;ratioP2
51286;SDS011;37364;46.974;18.916;2024-01-11T00:02:23;98.68;;;50.35;;
51286;SDS011;37364;46.974;18.916;2024-01-11T00:04:53;87.13;;;49.92;;
51286;SDS011;37364;46.974;18.916;2024-01-11T00:07:25;94.28;;;48.20;;
51286;SDS011;37364;46.974;18.916;2024-01-11T00:09:59;85.40;;;46.63;;
51286;SDS011;37364;46.974;18.916;2024-01-11T00:12:30;83.55;;;45.10;;
51286;SDS011;37364;46.974;18.916;2024-01-11T00:15:03;75.03;;;42.97;;
51286;SDS011;37364;46.974;18.916;2024-01-11T00:17:38;73.18;;;41.90;;
51286;SDS011;37364;46.974;18.916;2024-01-11T00:20:13;77.88;;;42.00;;
51286;SDS011;37364;46.974;18.916;2024-01-11T00:22:44;70.85;;;40.67;;
51286;SDS011;37364;46.974;18.916;2024-01-11T00:25:17;95.93;;;46.38;;
51286;SDS011;37364;46.974;18.916;2024-01-11T00:27:47;120.85;;;59.00;;
51286;SDS011;37364;46.974;18.916;2024-01-11T00:30:17;81.22;;;45.40;;
51286;SDS011;37364;46.974;18.916;2024-01-11T00:32:47;95.35;;;48.85;;
51286;SDS011;37364;46.974;18.916;2024-01-11T00:35:19;126.20;;;63.78;;
51286;SDS011;37364;46.974;18.916;2024-01-11T00:37:50;145.25;;;64.13;;
51286;SDS011;37364;46.974;18.916;2024-01-11T00:40:23;99.97;;;49.65;;
51286;SDS011;37364;46.974;18.916;2024-01-11T00:42:53;106.55;;;51.42;;
51286;SDS011;37364;46.974;18.916;2024-01-11T00:45:24;101.97;;;53.80;;
51286;SDS011;37364;46.974;18.916;2024-01-11T00:47:54;112.85;;;58.95;;
51286;SDS011;37364;46.974;18.916;2024-01-11T00:50:24;139.85;;;68.18;;
51286;SDS011;37364;46.974;18.916;2024-01-11T00:52:56;102.85;;;56.75;;
51286;SDS011;37364;46.974;18.916;2024-01-11T00:55:31;131.43;;;64.57;;
51286;SDS011;37364;46.974;18.916;2024-01-11T00:58:01;105.88;;;50.53;;
51286;SDS011;37364;46.974;18.916;2024-01-11T01:00:32;123.90;;;67.03;;
51286;SDS011;37364;46.974;18.916;2024-01-11T01:03:05;120.90;;;63.50;;
51286;SDS011;37364;46.974;18.916;2024-01-11T01:05:35;119.97;;;63.30;;
51286;SDS011;37364;46.974;18.916;2024-01-11T01:08:05;151.25;;;73.93;;
51286;SDS011;37364;46.974;18.916;2024-01-11T01:10:37;148.90;;;72.40;;
51286;SDS011;37364;46.974;18.916;2024-01-11T01:13:08;113.68;;;58.15;;
51286;SDS011;37364;46.974;18.916;2024-01-11T01:15:38;111.40;;;57.85;;
51286;SDS011;37364;46.974;18.916;2024-01-11T01:18:09;130.98;;;67.35;;
51286;SDS011;37364;46.974;18.916;2024-01-11T01:20:39;135.02;;;69.38;;
51286;SDS011;37364;46.974;18.916;2024-01-11T01:23:10;105.97;;;59.38;;
51286;SDS011;37364;46.974;18.916;2024-01-11T01:25:43;140.63;;;73.47;;
51286;SDS011;37364;46.974;18.916;2024-01-11T01:28:13;116.30;;;61.17;;
51286;SDS011;37364;46.974;18.916;2024-01-11T01:30:44;107.22;;;57.72;;
51286;SDS011;37364;46.974;18.916;2024-01-11T01:33:18;131.18;;;68.30;;
51286;SDS011;37364;46.974;18.916;2024-01-11T01:35:48;126.10;;;62.85;;
51286;SDS011;37364;46.974;18.916;2024-01-11T01:38:18;115.43;;;64.55;;
51286;SDS011;37364;46.974;18.916;2024-01-11T01:40:51;156.10;;;83.65;;
51286;SDS011;37364;46.974;18.916;2024-01-11T01:43:21;112.00;;;62.22;;
51286;SDS011;37364;46.974;18.916;2024-01-11T01:45:52;109.38;;;58.30;;
51286;SDS011;37364;46.974;18.916;2024-01-11T01:48:23;183.38;;;90.55;;
51286;SDS011;37364;46.974;18.916;2024-01-11T01:50:53;236.52;;;114.10;;
51286;SDS011;37364;46.974;18.916;2024-01-11T01:53:24;432.23;;;220.70;;
51286;SDS011;37364;46.974;18.916;2024-01-11T01:56:00;234.70;;;105.90;;
51286;SDS011;37364;46.974;18.916;2024-01-11T01:58:32;327.90;;;147.25;;
51286;SDS011;37364;46.974;18.916;2024-01-11T02:01:03;329.20;;;158.48;;
51286;SDS011;37364;46.974;18.916;2024-01-11T02:03:37;445.38;;;240.25;;
51286;SDS011;37364;46.974;18.916;2024-01-11T02:06:08;251.30;;;124.63;;
51286;SDS011;37364;46.974;18.916;2024-01-11T02:08:39;134.55;;;70.45;;
51286;SDS011;37364;46.974;18.916;2024-01-11T02:11:14;161.07;;;83.50;;
51286;SDS011;37364;46.974;18.916;2024-01-11T02:13:46;165.82;;;83.60;;
51286;SDS011;37364;46.974;18.916;2024-01-11T02:16:18;295.80;;;140.65;;
51286;SDS011;37364;46.974;18.916;2024-01-11T02:18:49;149.20;;;71.65;;
51286;SDS011;37364;46.974;18.916;2024-01-11T02:21:22;146.38;;;72.57;;
51286;SDS011;37364;46.974;18.916;2024-01-11T02:24:05;130.27;;;70.78;;
51286;SDS011;37364;46.974;18.916;2024-01-11T02:29:35;110.82;;;64.80;;
51286;SDS011;37364;46.974;18.916;2024-01-11T02:32:20;121.95;;;61.83;;
51286;SDS011;37364;46.974;18.916;2024-01-11T02:35:03;123.28;;;67.22;;
51286;SDS011;37364;46.974;18.916;2024-01-11T02:37:38;106.55;;;57.50;;
51286;SDS011;37364;46.974;18.916;2024-01-11T02:40:17;115.07;;;56.88;;
51286;SDS011;37364;46.974;18.916;2024-01-11T02:43:11;105.88;;;56.58;;
51286;SDS011;37364;46.974;18.916;2024-01-11T02:45:45;105.70;;;58.67;;
51286;SDS011;37364;46.974;18.916;2024-01-11T02:48:29;105.25;;;56.58;;
51286;SDS011;37364;46.974;18.916;2024-01-11T02:54:03;97.30;;;53.50;;
51286;SDS011;37364;46.974;18.916;2024-01-11T02:56:37;111.07;;;54.33;;
51286;SDS011;37364;46.974;18.916;2024-01-11T02:59:21;110.55;;;56.25;;
51286;SDS011;37364;46.974;18.916;2024-01-11T03:02:06;115.07;;;56.47;;
51286;SDS011;37364;46.974;18.916;2024-01-11T03:04:40;109.20;;;59.45;;
51286;SDS011;37364;46.974;18.916;2024-01-11T03:07:24;102.38;;;55.72;;
51286;SDS011;37364;46.974;18.916;2024-01-11T03:09:55;109.38;;;56.58;;
51286;SDS011;37364;46.974;18.916;2024-01-11T03:12:28;100.25;;;56.33;;
51286;SDS011;37364;46.974;18.916;2024-01-11T03:14:58;108.47;;;55.30;;
51286;SDS011;37364;46.974;18.916;2024-01-11T03:17:28;104.20;;;56.25;;
51286;SDS011;37364;46.974;18.916;2024-01-11T03:19:59;106.32;;;56.83;;
51286;SDS011;37364;46.974;18.916;2024-01-11T03:22:31;94.10;;;51.63;;
51286;SDS011;37364;46.974;18.916;2024-01-11T03:25:01;102.30;;;55.65;;
51286;SDS011;37364;46.974;18.916;2024-01-11T03:27:37;102.00;;;55.93;;
51286;SDS011;37364;46.974;18.916;2024-01-11T03:30:07;112.55;;;58.20;;
51286;SDS011;37364;46.974;18.916;2024-01-11T03:32:38;95.78;;;55.63;;
51286;SDS011;37364;46.974;18.916;2024-01-11T03:35:09;109.95;;;56.08;;
51286;SDS011;37364;46.974;18.916;2024-01-11T03:37:40;102.10;;;54.70;;
51286;SDS011;37364;46.974;18.916;2024-01-11T03:40:10;109.82;;;56.67;;
51286;SDS011;37364;46.974;18.916;2024-01-11T03:42:44;94.68;;;55.90;;
51286;SDS011;37364;46.974;18.916;2024-01-11T03:45:17;100.07;;;54.92;;
51286;SDS011;37364;46.974;18.916;2024-01-11T03:47:48;100.07;;;54.65;;
51286;SDS011;37364;46.974;18.916;2024-01-11T03:50:18;106.82;;;55.95;;
51286;SDS011;37364;46.974;18.916;2024-01-11T03:52:49;103.57;;;53.55;;
51286;SDS011;37364;46.974;18.916;2024-01-11T03:55:19;107.50;;;55.05;;
51286;SDS011;37364;46.974;18.916;2024-01-11T03:57:52;99.63;;;54.55;;
51286;SDS011;37364;46.974;18.916;2024-01-11T04:02:53;99.18;;;52.75;;
51286;SDS011;37364;46.974;18.916;2024-01-11T04:05:23;99.30;;;53.80;;
51286;SDS011;37364;46.974;18.916;2024-01-11T04:07:53;102.75;;;53.50;;
51286;SDS011;37364;46.974;18.916;2024-01-11T04:10:23;105.03;;;54.78;;
51286;SDS011;37364;46.974;18.916;2024-01-11T04:12:56;105.05;;;54.05;;
51286;SDS011;37364;46.974;18.916;2024-01-11T04:15:26;95.63;;;54.58;;
51286;SDS011;37364;46.974;18.916;2024-01-11T04:17:57;109.63;;;54.45;;
51286;SDS011;37364;46.974;18.916;2024-01-11T04:20:27;104.40;;;54.58;;
51286;SDS011;37364;46.974;18.916;2024-01-11T04:22:57;106.05;;;54.97;;
51286;SDS011;37364;46.974;18.916;2024-01-11T04:25:27;100.65;;;54.90;;
51286;SDS011;37364;46.974;18.916;2024-01-11T04:28:00;105.13;;;56.70;;
51286;SDS011;37364;46.974;18.916;2024-01-11T04:30:31;113.53;;;56.95;;
51286;SDS011;37364;46.974;18.916;2024-01-11T04:33:01;108.30;;;55.05;;
51286;SDS011;37364;46.974;18.916;2024-01-11T04:35:32;101.90;;;55.38;;
51286;SDS011;37364;46.974;18.916;2024-01-11T04:38:02;96.30;;;54.05;;
51286;SDS011;37364;46.974;18.916;2024-01-11T04:40:32;99.70;;;54.38;;
51286;SDS011;37364;46.974;18.916;2024-01-11T04:43:05;101.63;;;52.83;;
51286;SDS011;37364;46.974;18.916;2024-01-11T04:45:35;101.13;;;58.77;;
51286;SDS011;37364;46.974;18.916;2024-01-11T04:48:05;103.25;;;57.80;;
51286;SDS011;37364;46.974;18.916;2024-01-11T04:50:36;107.03;;;56.22;;
51286;SDS011;37364;46.974;18.916;2024-01-11T04:53:06;115.25;;;56.80;;
51286;SDS011;37364;46.974;18.916;2024-01-11T04:55:36;107.05;;;56.63;;
51286;SDS011;37364;46.974;18.916;2024-01-11T04:58:09;116.03;;;61.10;;
51286;SDS011;37364;46.974;18.916;2024-01-11T05:00:40;115.93;;;57.28;;
51286;SDS011;37364;46.974;18.916;2024-01-11T05:03:10;118.07;;;58.90;;
51286;SDS011;37364;46.974;18.916;2024-01-11T05:05:41;106.57;;;58.33;;
51286;SDS011;37364;46.974;18.916;2024-01-11T05:08:12;116.72;;;58.22;;
51286;SDS011;37364;46.974;18.916;2024-01-11T05:10:43;112.18;;;62.03;;
51286;SDS011;37364;46.974;18.916;2024-01-11T05:13:16;115.85;;;61.80;;
51286;SDS011;37364;46.974;18.916;2024-01-11T05:15:47;110.57;;;61.83;;
51286;SDS011;37364;46.974;18.916;2024-01-11T05:18:19;119.65;;;61.22;;
51286;SDS011;37364;46.974;18.916;2024-01-11T05:20:50;128.43;;;62.17;;
51286;SDS011;37364;46.974;18.916;2024-01-11T05:23:20;118.03;;;62.25;;
51286;SDS011;37364;46.974;18.916;2024-01-11T05:25:50;115.07;;;61.42;;
51286;SDS011;37364;46.974;18.916;2024-01-11T05:28:22;108.15;;;61.38;;
51286;SDS011;37364;46.974;18.916;2024-01-11T05:30:52;109.63;;;60.63;;
51286;SDS011;37364;46.974;18.916;2024-01-11T05:33:22;120.53;;;61.67;;
51286;SDS011;37364;46.974;18.916;2024-01-11T05:35:53;118.38;;;61.95;;
51286;SDS011;37364;46.974;18.916;2024-01-11T05:38:23;118.75;;;61.72;;
51286;SDS011;37364;46.974;18.916;2024-01-11T05:40:53;127.60;;;61.22;;
51286;SDS011;37364;46.974;18.916;2024-01-11T05:43:25;120.70;;;62.70;;
51286;SDS011;37364;46.974;18.916;2024-01-11T05:45:55;124.10;;;63.67;;
51286;SDS011;37364;46.974;18.916;2024-01-11T05:48:25;110.15;;;59.83;;
51286;SDS011;37364;46.974;18.916;2024-01-11T05:50:59;120.45;;;64.50;;
51286;SDS011;37364;46.974;18.916;2024-01-11T05:53:29;109.97;;;61.10;;
51286;SDS011;37364;46.974;18.916;2024-01-11T05:56:06;111.72;;;58.40;;
51286;SDS011;37364;46.974;18.916;2024-01-11T05:58:40;116.75;;;65.30;;
51286;SDS011;37364;46.974;18.916;2024-01-11T06:01:10;110.13;;;62.57;;
51286;SDS011;37364;46.974;18.916;2024-01-11T06:03:41;135.57;;;64.90;;
51286;SDS011;37364;46.974;18.916;2024-01-11T06:06:11;119.93;;;65.72;;
51286;SDS011;37364;46.974;18.916;2024-01-11T06:08:42;129.07;;;63.55;;
51286;SDS011;37364;46.974;18.916;2024-01-11T06:11:12;120.50;;;64.03;;
51286;SDS011;37364;46.974;18.916;2024-01-11T06:13:45;114.45;;;62.25;;
51286;SDS011;37364;46.974;18.916;2024-01-11T06:16:16;121.18;;;66.53;;
51286;SDS011;37364;46.974;18.916;2024-01-11T06:18:46;122.32;;;67.90;;
51286;SDS011;37364;46.974;18.916;2024-01-11T06:21:17;121.63;;;64.85;;
51286;SDS011;37364;46.974;18.916;2024-01-11T06:23:47;117.97;;;65.18;;
51286;SDS011;37364;46.974;18.916;2024-01-11T06:26:18;124.68;;;66.10;;
51286;SDS011;37364;46.974;18.916;2024-01-11T06:28:52;132.48;;;66.07;;
51286;SDS011;37364;46.974;18.916;2024-01-11T06:31:22;116.03;;;63.67;;
51286;SDS011;37364;46.974;18.916;2024-01-11T06:33:53;121.93;;;63.63;;
51286;SDS011;37364;46.974;18.916;2024-01-11T06:36:23;118.30;;;65.50;;
51286;SDS011;37364;46.974;18.916;2024-01-11T06:38:53;117.18;;;63.83;;
51286;SDS011;37364;46.974;18.916;2024-01-11T06:41:23;127.00;;;68.82;;
51286;SDS011;37364;46.974;18.916;2024-01-11T06:43:56;132.85;;;69.18;;
51286;SDS011;37364;46.974;18.916;2024-01-11T06:46:27;125.93;;;67.00;;
51286;SDS011;37364;46.974;18.916;2024-01-11T06:48:57;140.40;;;71.65;;
51286;SDS011;37364;46.974;18.916;2024-01-11T06:51:28;128.57;;;66.78;;
51286;SDS011;37364;46.974;18.916;2024-01-11T06:53:58;130.27;;;66.43;;
51286;SDS011;37364;46.974;18.916;2024-01-11T06:56:29;120.70;;;65.53;;
51286;SDS011;37364;46.974;18.916;2024-01-11T06:59:02;127.13;;;64.32;;
51286;SDS011;37364;46.974;18.916;2024-01-11T07:01:34;122.82;;;66.50;;
51286;SDS011;37364;46.974;18.916;2024-01-11T07:04:04;119.88;;;65.72;;
51286;SDS011;37364;46.974;18.916;2024-01-11T07:06:36;125.20;;;66.13;;
51286;SDS011;37364;46.974;18.916;2024-01-11T07:09:06;128.00;;;67.78;;
51286;SDS011;37364;46.974;18.916;2024-01-11T07:11:37;129.88;;;67.47;;
51286;SDS011;37364;46.974;18.916;2024-01-11T07:14:11;121.05;;;68.25;;
51286;SDS011;37364;46.974;18.916;2024-01-11T07:16:41;126.57;;;64.82;;
51286;SDS011;37364;46.974;18.916;2024-01-11T07:19:11;113.63;;;63.95;;
51286;SDS011;37364;46.974;18.916;2024-01-11T07:21:41;116.85;;;59.40;;
51286;SDS011;37364;46.974;18.916;2024-01-11T07:24:11;127.18;;;68.20;;
51286;SDS011;37364;46.974;18.916;2024-01-11T07:26:42;114.78;;;61.83;;
51286;SDS011;37364;46.974;18.916;2024-01-11T07:29:16;110.22;;;60.38;;
51286;SDS011;37364;46.974;18.916;2024-01-11T07:31:46;105.45;;;57.40;;
51286;SDS011;37364;46.974;18.916;2024-01-11T07:34:19;117.85;;;58.55;;
51286;SDS011;37364;46.974;18.916;2024-01-11T07:36:51;101.70;;;53.00;;
51286;SDS011;37364;46.974;18.916;2024-01-11T07:39:23;114.93;;;56.05;;
51286;SDS011;37364;46.974;18.916;2024-01-11T07:41:53;121.88;;;56.13;;
51286;SDS011;37364;46.974;18.916;2024-01-11T07:44:26;111.40;;;57.13;;
51286;SDS011;37364;46.974;18.916;2024-01-11T07:46:56;107.70;;;60.00;;
51286;SDS011;37364;46.974;18.916;2024-01-11T07:49:28;107.38;;;55.95;;
51286;SDS011;37364;46.974;18.916;2024-01-11T07:51:58;120.00;;;61.05;;
51286;SDS011;37364;46.974;18.916;2024-01-11T07:54:28;112.95;;;59.53;;
51286;SDS011;37364;46.974;18.916;2024-01-11T07:56:59;119.30;;;58.50;;
51286;SDS011;37364;46.974;18.916;2024-01-11T07:59:35;111.38;;;61.45;;
51286;SDS011;37364;46.974;18.916;2024-01-11T08:02:05;112.63;;;59.75;;
51286;SDS011;37364;46.974;18.916;2024-01-11T08:04:36;123.68;;;59.47;;
51286;SDS011;37364;46.974;18.916;2024-01-11T08:07:07;112.20;;;57.53;;
51286;SDS011;37364;46.974;18.916;2024-01-11T08:09:38;106.13;;;55.92;;
51286;SDS011;37364;46.974;18.916;2024-01-11T08:12:12;122.75;;;64.60;;
51286;SDS011;37364;46.974;18.916;2024-01-11T08:14:45;197.77;;;117.53;;
51286;SDS011;37364;46.974;18.916;2024-01-11T08:17:15;123.55;;;64.95;;
51286;SDS011;37364;46.974;18.916;2024-01-11T08:19:46;421.02;;;263.67;;
51286;SDS011;37364;46.974;18.916;2024-01-11T08:22:16;146.57;;;79.63;;
51286;SDS011;37364;46.974;18.916;2024-01-11T08:24:52;145.18;;;77.45;;
51286;SDS011;37364;46.974;18.916;2024-01-11T08:27:23;183.52;;;98.15;;
51286;SDS011;37364;46.974;18.916;2024-01-11T08:29:55;150.60;;;73.63;;
51286;SDS011;37364;46.974;18.916;2024-01-11T08:32:27;128.55;;;65.55;;
51286;SDS011;37364;46.974;18.916;2024-01-11T08:34:58;129.55;;;66.72;;
51286;SDS011;37364;46.974;18.916;2024-01-11T08:37:29;105.28;;;59.72;;
51286;SDS011;37364;46.974;18.916;2024-01-11T08:39:59;112.97;;;60.13;;
51286;SDS011;37364;46.974;18.916;2024-01-11T08:42:31;93.22;;;52.78;;
51286;SDS011;37364;46.974;18.916;2024-01-11T08:45:04;101.80;;;57.05;;
51286;SDS011;37364;46.974;18.916;2024-01-11T08:47:38;146.88;;;70.15;;
51286;SDS011;37364;46.974;18.916;2024-01-11T08:50:08;96.40;;;52.28;;
51286;SDS011;37364;46.974;18.916;2024-01-11T08:52:46;104.53;;;55.55;;
51286;SDS011;37364;46.974;18.916;2024-01-11T08:55:16;115.78;;;59.40;;
51286;SDS011;37364;46.974;18.916;2024-01-11T08:57:46;96.57;;;51.53;;
51286;SDS011;37364;46.974;18.916;2024-01-11T09:00:19;91.30;;;45.92;;
51286;SDS011;37364;46.974;18.916;2024-01-11T09:05:22;84.22;;;47.97;;
51286;SDS011;37364;46.974;18.916;2024-01-11T09:07:52;82.70;;;48.90;;
51286;SDS011;37364;46.974;18.916;2024-01-11T09:10:23;97.65;;;50.72;;
51286;SDS011;37364;46.974;18.916;2024-01-11T09:12:56;285.73;;;148.90;;
51286;SDS011;37364;46.974;18.916;2024-01-11T09:15:30;228.25;;;116.00;;
51286;SDS011;37364;46.974;18.916;2024-01-11T09:18:03;135.95;;;69.00;;
51286;SDS011;37364;46.974;18.916;2024-01-11T09:20:43;85.30;;;49.35;;
51286;SDS011;37364;46.974;18.916;2024-01-11T09:23:14;142.68;;;79.47;;
51286;SDS011;37364;46.974;18.916;2024-01-11T09:25:45;91.72;;;50.40;;
51286;SDS011;37364;46.974;18.916;2024-01-11T09:28:15;80.97;;;43.20;;
51286;SDS011;37364;46.974;18.916;2024-01-11T09:30:49;71.60;;;43.72;;
51286;SDS011;37364;46.974;18.916;2024-01-11T09:33:26;67.78;;;40.22;;
51286;SDS011;37364;46.974;18.916;2024-01-11T09:35:57;75.78;;;43.45;;
51286;SDS011;37364;46.974;18.916;2024-01-11T09:38:27;82.60;;;47.97;;
51286;SDS011;37364;46.974;18.916;2024-01-11T09:41:00;77.78;;;44.53;;
51286;SDS011;37364;46.974;18.916;2024-01-11T09:43:41;103.25;;;56.30;;
51286;SDS011;37364;46.974;18.916;2024-01-11T09:46:14;82.53;;;43.65;;
51286;SDS011;37364;46.974;18.916;2024-01-11T09:48:47;80.38;;;43.72;;
51286;SDS011;37364;46.974;18.916;2024-01-11T09:51:23;70.65;;;42.38;;
51286;SDS011;37364;46.974;18.916;2024-01-11T09:54:05;75.50;;;43.25;;
51286;SDS011;37364;46.974;18.916;2024-01-11T09:56:38;69.88;;;38.80;;
51286;SDS011;37364;46.974;18.916;2024-01-11T09:59:12;59.33;;;37.72;;
51286;SDS011;37364;46.974;18.916;2024-01-11T10:01:50;76.93;;;42.65;;
51286;SDS011;37364;46.974;18.916;2024-01-11T10:04:20;69.47;;;36.83;;
51286;SDS011;37364;46.974;18.916;2024-01-11T10:06:51;63.70;;;36.45;;
51286;SDS011;37364;46.974;18.916;2024-01-11T10:09:29;55.97;;;33.00;;
51286;SDS011;37364;46.974;18.916;2024-01-11T10:11:59;67.40;;;38.60;;
51286;SDS011;37364;46.974;18.916;2024-01-11T10:17:05;132.27;;;70.35;;
51286;SDS011;37364;46.974;18.916;2024-01-11T10:19:43;63.53;;;36.60;;
51286;SDS011;37364;46.974;18.916;2024-01-11T10:22:13;180.48;;;91.00;;
51286;SDS011;37364;46.974;18.916;2024-01-11T10:24:43;66.25;;;38.67;;
51286;SDS011;37364;46.974;18.916;2024-01-11T10:27:13;82.38;;;49.30;;
51286;SDS011;37364;46.974;18.916;2024-01-11T10:29:43;98.30;;;53.30;;
51286;SDS011;37364;46.974;18.916;2024-01-11T10:40:02;54.00;;;29.52;;
51286;SDS011;37364;46.974;18.916;2024-01-11T10:43:03;60.45;;;32.03;;
51286;SDS011;37364;46.974;18.916;2024-01-11T10:46:13;57.08;;;35.25;;
51286;SDS011;37364;46.974;18.916;2024-01-11T10:49:54;45.65;;;28.38;;
51286;SDS011;37364;46.974;18.916;2024-01-11T10:53:28;48.05;;;26.25;;
51286;SDS011;37364;46.974;18.916;2024-01-11T10:57:04;59.10;;;30.40;;
51286;SDS011;37364;46.974;18.916;2024-01-11T11:04:39;58.15;;;34.47;;
51286;SDS011;37364;46.974;18.916;2024-01-11T11:24:09;138.95;;;59.13;;
51286;SDS011;37364;46.974;18.916;2024-01-11T11:26:42;45.38;;;24.73;;
51286;SDS011;37364;46.974;18.916;2024-01-11T11:29:14;51.63;;;29.70;;
51286;SDS011;37364;46.974;18.916;2024-01-11T11:31:47;51.88;;;29.60;;
51286;SDS011;37364;46.974;18.916;2024-01-11T11:37:14;67.00;;;38.83;;
51286;SDS011;37364;46.974;18.916;2024-01-11T11:39:52;54.75;;;30.35;;
51286;SDS011;37364;46.974;18.916;2024-01-11T11:42:24;60.17;;;31.75;;
51286;SDS011;37364;46.974;18.916;2024-01-11T11:44:55;50.53;;;29.48;;
51286;SDS011;37364;46.974;18.916;2024-01-11T11:47:33;37.72;;;22.63;;
51286;SDS011;37364;46.974;18.916;2024-01-11T11:50:06;37.72;;;24.17;;
51286;SDS011;37364;46.974;18.916;2024-01-11T11:52:43;37.47;;;23.27;;
51286;SDS011;37364;46.974;18.916;2024-01-11T11:55:17;33.22;;;20.80;;
51286;SDS011;37364;46.974;18.916;2024-01-11T11:57:47;34.22;;;18.75;;
51286;SDS011;37364;46.974;18.916;2024-01-11T12:00:20;32.60;;;19.50;;
51286;SDS011;37364;46.974;18.916;2024-01-11T12:03:03;29.90;;;18.48;;
51286;SDS011;37364;46.974;18.916;2024-01-11T12:05:37;34.20;;;18.73;;
51286;SDS011;37364;46.974;18.916;2024-01-11T12:08:13;28.65;;;19.27;;
51286;SDS011;37364;46.974;18.916;2024-01-11T12:10:46;28.35;;;17.90;;
51286;SDS011;37364;46.974;18.916;2024-01-11T12:13:17;29.52;;;18.20;;
51286;SDS011;37364;46.974;18.916;2024-01-11T12:15:51;31.30;;;18.02;;
51286;SDS011;37364;46.974;18.916;2024-01-11T12:18:27;26.63;;;16.80;;
51286;SDS011;37364;46.974;18.916;2024-01-11T12:21:13;45.15;;;25.50;;
51286;SDS011;37364;46.974;18.916;2024-01-11T12:23:48;38.23;;;22.53;;
51286;SDS011;37364;46.974;18.916;2024-01-11T12:26:27;38.72;;;23.50;;
51286;SDS011;37364;46.974;18.916;2024-01-11T12:29:00;35.80;;;20.67;;
51286;SDS011;37364;46.974;18.916;2024-01-11T12:31:33;21.57;;;15.27;;
51286;SDS011;37364;46.974;18.916;2024-01-11T12:34:05;38.55;;;22.83;;
51286;SDS011;37364;46.974;18.916;2024-01-11T12:36:38;30.77;;;18.33;;
51286;SDS011;37364;46.974;18.916;2024-01-11T12:39:12;48.17;;;26.08;;
51286;SDS011;37364;46.974;18.916;2024-01-11T12:41:42;26.77;;;17.77;;
51286;SDS011;37364;46.974;18.916;2024-01-11T12:44:14;35.45;;;20.50;;
51286;SDS011;37364;46.974;18.916;2024-01-11T12:46:47;34.92;;;18.80;;
51286;SDS011;37364;46.974;18.916;2024-01-11T12:49:18;25.90;;;16.33;;
51286;SDS011;37364;46.974;18.916;2024-01-11T12:51:54;32.42;;;19.60;;
51286;SDS011;37364;46.974;18.916;2024-01-11T12:54:28;24.15;;;15.50;;
51286;SDS011;37364;46.974;18.916;2024-01-11T12:57:19;30.35;;;17.98;;
51286;SDS011;37364;46.974;18.916;2024-01-11T13:00:11;51.25;;;27.45;;
51286;SDS011;37364;46.974;18.916;2024-01-11T13:02:43;105.30;;;52.80;;
51286;SDS011;37364;46.974;18.916;2024-01-11T13:05:20;105.88;;;53.58;;
51286;SDS011;37364;46.974;18.916;2024-01-11T13:07:59;112.28;;;55.30;;
51286;SDS011;37364;46.974;18.916;2024-01-11T13:10:40;33.55;;;19.83;;
51286;SDS011;37364;46.974;18.916;2024-01-11T13:13:18;36.58;;;21.48;;
51286;SDS011;37364;46.974;18.916;2024-01-11T13:15:53;39.17;;;20.42;;
51286;SDS011;37364;46.974;18.916;2024-01-11T13:18:30;37.15;;;20.33;;
51286;SDS011;37364;46.974;18.916;2024-01-11T13:21:02;61.40;;;30.90;;
51286;SDS011;37364;46.974;18.916;2024-01-11T13:23:36;58.35;;;28.92;;
51286;SDS011;37364;46.974;18.916;2024-01-11T13:26:09;33.28;;;21.40;;
51286;SDS011;37364;46.974;18.916;2024-01-11T13:28:52;24.25;;;15.02;;
51286;SDS011;37364;46.974;18.916;2024-01-11T13:31:22;22.73;;;14.90;;
51286;SDS011;37364;46.974;18.916;2024-01-11T13:34:10;29.90;;;17.90;;
51286;SDS011;37364;46.974;18.916;2024-01-11T13:36:45;43.67;;;23.55;;
51286;SDS011;37364;46.974;18.916;2024-01-11T13:39:19;23.23;;;15.07;;
51286;SDS011;37364;46.974;18.916;2024-01-11T13:41:56;23.73;;;14.13;;
51286;SDS011;37364;46.974;18.916;2024-01-11T13:44:26;27.38;;;14.20;;
51286;SDS011;37364;46.974;18.916;2024-01-11T13:46:56;28.40;;;16.25;;
51286;SDS011;37364;46.974;18.916;2024-01-11T13:49:26;26.77;;;16.40;;
51286;SDS011;37364;46.974;18.916;2024-01-11T13:52:01;24.60;;;15.23;;
51286;SDS011;37364;46.974;18.916;2024-01-11T13:54:34;53.35;;;26.88;;
51286;SDS011;37364;46.974;18.916;2024-01-11T13:57:06;26.42;;;15.73;;
51286;SDS011;37364;46.974;18.916;2024-01-11T13:59:37;53.30;;;29.65;;
51286;SDS011;37364;46.974;18.916;2024-01-11T14:02:20;28.42;;;15.63;;
51286;SDS011;37364;46.974;18.916;2024-01-11T14:04:50;38.75;;;23.55;;
51286;SDS011;37364;46.974;18.916;2024-01-11T14:07:20;21.60;;;14.27;;
51286;SDS011;37364;46.974;18.916;2024-01-11T14:09:50;39.20;;;22.05;;
51286;SDS011;37364;46.974;18.916;2024-01-11T14:12:32;30.33;;;15.63;;
51286;SDS011;37364;46.974;18.916;2024-01-11T14:15:06;28.02;;;17.05;;
51286;SDS011;37364;46.974;18.916;2024-01-11T14:17:38;23.13;;;14.15;;
51286;SDS011;37364;46.974;18.916;2024-01-11T14:20:21;22.40;;;14.52;;
51286;SDS011;37364;46.974;18.916;2024-01-11T14:23:03;19.65;;;13.52;;
51286;SDS011;37364;46.974;18.916;2024-01-11T14:25:33;21.65;;;13.88;;
51286;SDS011;37364;46.974;18.916;2024-01-11T14:28:12;26.95;;;14.10;;
51286;SDS011;37364;46.974;18.916;2024-01-11T14:30:42;22.95;;;15.45;;
51286;SDS011;37364;46.974;18.916;2024-01-11T14:33:24;31.48;;;18.48;;
51286;SDS011;37364;46.974;18.916;2024-01-11T14:35:55;34.17;;;19.80;;
51286;SDS011;37364;46.974;18.916;2024-01-11T14:38:25;39.63;;;22.45;;
51286;SDS011;37364;46.974;18.916;2024-01-11T14:40:55;33.85;;;20.73;;
51286;SDS011;37364;46.974;18.916;2024-01-11T14:43:49;72.45;;;45.03;;
51286;SDS011;37364;46.974;18.916;2024-01-11T14:46:25;32.80;;;19.85;;
51286;SDS011;37364;46.974;18.916;2024-01-11T14:48:58;44.45;;;26.42;;
51286;SDS011;37364;46.974;18.916;2024-01-11T14:51:31;26.98;;;17.20;;
51286;SDS011;37364;46.974;18.916;2024-01-11T14:54:07;31.15;;;17.63;;
51286;SDS011;37364;46.974;18.916;2024-01-11T14:56:40;25.98;;;15.73;;
51286;SDS011;37364;46.974;18.916;2024-01-11T14:59:13;26.02;;;16.40;;
51286;SDS011;37364;46.974;18.916;2024-01-11T15:01:46;24.48;;;13.82;;
51286;SDS011;37364;46.974;18.916;2024-01-11T15:04:22;28.65;;;15.93;;
51286;SDS011;37364;46.974;18.916;2024-01-11T15:06:58;26.23;;;14.65;;
51286;SDS011;37364;46.974;18.916;2024-01-11T15:09:31;25.20;;;14.98;;
51286;SDS011;37364;46.974;18.916;2024-01-11T15:12:02;25.38;;;15.65;;
51286;SDS011;37364;46.974;18.916;2024-01-11T15:14:42;27.00;;;15.25;;
51286;SDS011;37364;46.974;18.916;2024-01-11T15:17:17;26.08;;;15.90;;
51286;SDS011;37364;46.974;18.916;2024-01-11T15:19:51;24.20;;;14.27;;
51286;SDS011;37364;46.974;18.916;2024-01-11T15:22:33;22.45;;;13.90;;
51286;SDS011;37364;46.974;18.916;2024-01-11T15:25:16;23.38;;;13.45;;